sensor_id;sensor_type;location;lat;lon;timestamp;P1;durP1;ratioP1;P2;durP2;ratioP2
31061;SDS011;17724;53.546;9.974;2023-05-10T00:01:13;9.13;;;3.80;;
31061;SDS011;17724;53.546;9.974;2023-05-10T00:05:13;10.20;;;3.20;;
31061;SDS011;17724;53.546;9.974;2023-05-10T00:09:14;7.40;;;3.13;;
31061;SDS011;17724;53.546;9.974;2023-05-10T00:13:14;8.50;;;3.83;;
31061;SDS011;17724;53.546;9.974;2023-05-10T00:17:15;9.73;;;4.20;;
31061;SDS011;17724;53.546;9.974;2023-05-10T00:21:16;8.27;;;3.60;;
31061;SDS011;17724;53.546;9.974;2023-05-10T00:25:16;9.07;;;3.10;;
31061;SDS011;17724;53.546;9.974;2023-05-10T00:29:16;9.60;;;3.63;;
31061;SDS011;17724;53.546;9.974;2023-05-10T00:33:17;8.57;;;3.40;;
31061;SDS011;17724;53.546;9.974;2023-05-10T00:37:18;8.80;;;3.47;;
31061;SDS011;17724;53.546;9.974;2023-05-10T00:41:18;8.67;;;3.73;;
31061;SDS011;17724;53.546;9.974;2023-05-10T00:45:20;9.10;;;3.10;;
31061;SDS011;17724;53.546;9.974;2023-05-10T00:49:21;8.70;;;4.10;;
31061;SDS011;17724;53.546;9.974;2023-05-10T00:53:21;8.30;;;3.33;;
31061;SDS011;17724;53.546;9.974;2023-05-10T00:57:22;8.80;;;3.57;;
31061;SDS011;17724;53.546;9.974;2023-05-10T01:01:22;8.30;;;3.90;;
31061;SDS011;17724;53.546;9.974;2023-05-10T01:05:23;8.17;;;3.77;;
31061;SDS011;17724;53.546;9.974;2023-05-10T01:09:24;9.63;;;3.83;;
31061;SDS011;17724;53.546;9.974;2023-05-10T01:13:39;10.70;;;3.90;;
31061;SDS011;17724;53.546;9.974;2023-05-10T01:17:43;9.03;;;3.40;;
31061;SDS011;17724;53.546;9.974;2023-05-10T01:21:49;9.00;;;3.90;;
31061;SDS011;17724;53.546;9.974;2023-05-10T01:43:30;8.57;;;3.40;;
31061;SDS011;17724;53.546;9.974;2023-05-10T01:52:18;7.77;;;3.47;;
31061;SDS011;17724;53.546;9.974;2023-05-10T01:56:20;8.63;;;4.00;;
31061;SDS011;17724;53.546;9.974;2023-05-10T02:00:24;8.60;;;3.80;;
31061;SDS011;17724;53.546;9.974;2023-05-10T02:04:26;9.67;;;3.97;;
31061;SDS011;17724;53.546;9.974;2023-05-10T02:08:27;8.60;;;4.30;;
31061;SDS011;17724;53.546;9.974;2023-05-10T02:12:29;9.33;;;4.07;;
31061;SDS011;17724;53.546;9.974;2023-05-10T02:16:32;11.47;;;4.10;;
31061;SDS011;17724;53.546;9.974;2023-05-10T02:20:33;8.83;;;3.60;;
31061;SDS011;17724;53.546;9.974;2023-05-10T02:24:35;10.60;;;4.20;;
31061;SDS011;17724;53.546;9.974;2023-05-10T02:28:37;8.37;;;4.00;;
31061;SDS011;17724;53.546;9.974;2023-05-10T02:32:40;8.57;;;3.63;;
31061;SDS011;17724;53.546;9.974;2023-05-10T02:36:41;10.10;;;4.50;;
31061;SDS011;17724;53.546;9.974;2023-05-10T02:40:43;12.20;;;4.17;;
31061;SDS011;17724;53.546;9.974;2023-05-10T02:44:47;10.50;;;4.40;;
31061;SDS011;17724;53.546;9.974;2023-05-10T02:48:49;10.27;;;3.83;;
31061;SDS011;17724;53.546;9.974;2023-05-10T02:52:50;8.50;;;3.67;;
31061;SDS011;17724;53.546;9.974;2023-05-10T02:56:56;9.30;;;4.07;;
31061;SDS011;17724;53.546;9.974;2023-05-10T03:00:59;8.87;;;4.33;;
31061;SDS011;17724;53.546;9.974;2023-05-10T03:05:00;9.30;;;3.20;;
31061;SDS011;17724;53.546;9.974;2023-05-10T03:09:01;9.60;;;4.30;;
31061;SDS011;17724;53.546;9.974;2023-05-10T03:17:36;9.60;;;3.67;;
31061;SDS011;17724;53.546;9.974;2023-05-10T03:21:49;9.20;;;4.20;;
31061;SDS011;17724;53.546;9.974;2023-05-10T03:25:51;8.23;;;3.83;;
31061;SDS011;17724;53.546;9.974;2023-05-10T03:29:53;9.27;;;4.33;;
31061;SDS011;17724;53.546;9.974;2023-05-10T03:33:55;8.27;;;3.67;;
31061;SDS011;17724;53.546;9.974;2023-05-10T03:38:00;9.93;;;4.40;;
31061;SDS011;17724;53.546;9.974;2023-05-10T03:42:01;9.57;;;4.10;;
31061;SDS011;17724;53.546;9.974;2023-05-10T03:46:04;9.70;;;4.07;;
31061;SDS011;17724;53.546;9.974;2023-05-10T03:50:06;9.80;;;4.50;;
31061;SDS011;17724;53.546;9.974;2023-05-10T03:54:07;11.60;;;4.80;;
31061;SDS011;17724;53.546;9.974;2023-05-10T03:58:10;10.50;;;4.50;;
31061;SDS011;17724;53.546;9.974;2023-05-10T04:02:11;10.77;;;4.03;;
31061;SDS011;17724;53.546;9.974;2023-05-10T04:06:12;8.33;;;3.50;;
31061;SDS011;17724;53.546;9.974;2023-05-10T04:10:13;9.07;;;3.93;;
31061;SDS011;17724;53.546;9.974;2023-05-10T04:14:13;9.30;;;3.60;;
31061;SDS011;17724;53.546;9.974;2023-05-10T04:18:14;9.17;;;4.27;;
31061;SDS011;17724;53.546;9.974;2023-05-10T04:22:14;8.60;;;4.07;;
31061;SDS011;17724;53.546;9.974;2023-05-10T04:26:14;9.97;;;4.07;;
31061;SDS011;17724;53.546;9.974;2023-05-10T04:30:17;9.53;;;5.00;;
31061;SDS011;17724;53.546;9.974;2023-05-10T04:34:20;10.27;;;4.60;;
31061;SDS011;17724;53.546;9.974;2023-05-10T04:38:20;9.17;;;4.23;;
31061;SDS011;17724;53.546;9.974;2023-05-10T04:42:21;12.37;;;4.57;;
31061;SDS011;17724;53.546;9.974;2023-05-10T04:46:21;8.27;;;3.80;;
31061;SDS011;17724;53.546;9.974;2023-05-10T04:50:22;13.43;;;4.90;;
31061;SDS011;17724;53.546;9.974;2023-05-10T04:54:22;8.60;;;4.23;;
31061;SDS011;17724;53.546;9.974;2023-05-10T04:58:23;8.07;;;4.20;;
31061;SDS011;17724;53.546;9.974;2023-05-10T05:02:23;16.23;;;6.27;;
31061;SDS011;17724;53.546;9.974;2023-05-10T05:06:24;10.07;;;4.57;;
31061;SDS011;17724;53.546;9.974;2023-05-10T05:10:25;10.87;;;4.80;;
31061;SDS011;17724;53.546;9.974;2023-05-10T05:14:25;11.10;;;5.17;;
31061;SDS011;17724;53.546;9.974;2023-05-10T05:18:26;9.20;;;4.40;;
31061;SDS011;17724;53.546;9.974;2023-05-10T05:22:26;11.50;;;4.43;;
31061;SDS011;17724;53.546;9.974;2023-05-10T05:26:28;11.03;;;5.57;;
31061;SDS011;17724;53.546;9.974;2023-05-10T05:30:28;10.30;;;4.60;;
31061;SDS011;17724;53.546;9.974;2023-05-10T05:34:29;10.53;;;5.60;;
31061;SDS011;17724;53.546;9.974;2023-05-10T05:38:29;10.37;;;4.70;;
31061;SDS011;17724;53.546;9.974;2023-05-10T05:42:30;14.33;;;4.30;;
31061;SDS011;17724;53.546;9.974;2023-05-10T05:46:32;10.00;;;4.93;;
31061;SDS011;17724;53.546;9.974;2023-05-10T05:50:32;9.93;;;5.27;;
31061;SDS011;17724;53.546;9.974;2023-05-10T05:54:33;8.60;;;4.37;;
31061;SDS011;17724;53.546;9.974;2023-05-10T05:58:33;10.60;;;5.10;;
31061;SDS011;17724;53.546;9.974;2023-05-10T06:02:37;9.00;;;4.60;;
31061;SDS011;17724;53.546;9.974;2023-05-10T06:06:37;13.83;;;4.70;;
31061;SDS011;17724;53.546;9.974;2023-05-10T06:10:38;11.30;;;4.70;;
31061;SDS011;17724;53.546;9.974;2023-05-10T06:14:38;10.67;;;4.33;;
31061;SDS011;17724;53.546;9.974;2023-05-10T06:18:39;10.53;;;4.67;;
31061;SDS011;17724;53.546;9.974;2023-05-10T06:22:39;10.30;;;4.67;;
31061;SDS011;17724;53.546;9.974;2023-05-10T06:26:39;8.90;;;4.60;;
31061;SDS011;17724;53.546;9.974;2023-05-10T06:30:40;9.20;;;4.40;;
31061;SDS011;17724;53.546;9.974;2023-05-10T06:34:40;10.53;;;4.20;;
31061;SDS011;17724;53.546;9.974;2023-05-10T06:38:43;7.57;;;3.43;;
31061;SDS011;17724;53.546;9.974;2023-05-10T06:42:43;9.17;;;4.27;;
31061;SDS011;17724;53.546;9.974;2023-05-10T06:46:45;8.90;;;4.47;;
31061;SDS011;17724;53.546;9.974;2023-05-10T06:50:45;10.43;;;5.43;;
31061;SDS011;17724;53.546;9.974;2023-05-10T06:54:48;9.30;;;4.47;;
31061;SDS011;17724;53.546;9.974;2023-05-10T06:58:50;9.17;;;4.43;;
31061;SDS011;17724;53.546;9.974;2023-05-10T07:02:51;10.10;;;4.90;;
31061;SDS011;17724;53.546;9.974;2023-05-10T07:06:52;14.40;;;4.67;;
31061;SDS011;17724;53.546;9.974;2023-05-10T07:10:53;9.10;;;4.53;;
31061;SDS011;17724;53.546;9.974;2023-05-10T07:14:59;9.23;;;4.70;;
31061;SDS011;17724;53.546;9.974;2023-05-10T07:18:59;9.00;;;4.40;;
31061;SDS011;17724;53.546;9.974;2023-05-10T07:23:00;10.63;;;4.40;;
31061;SDS011;17724;53.546;9.974;2023-05-10T07:27:00;9.70;;;4.60;;
31061;SDS011;17724;53.546;9.974;2023-05-10T07:31:01;8.20;;;3.80;;
31061;SDS011;17724;53.546;9.974;2023-05-10T07:35:01;8.07;;;4.00;;
31061;SDS011;17724;53.546;9.974;2023-05-10T07:39:02;8.70;;;3.90;;
31061;SDS011;17724;53.546;9.974;2023-05-10T07:43:03;9.17;;;4.03;;
31061;SDS011;17724;53.546;9.974;2023-05-10T07:47:04;11.43;;;4.80;;
31061;SDS011;17724;53.546;9.974;2023-05-10T07:51:04;10.07;;;4.30;;
31061;SDS011;17724;53.546;9.974;2023-05-10T07:55:06;9.57;;;4.10;;
31061;SDS011;17724;53.546;9.974;2023-05-10T07:59:07;8.97;;;4.10;;
31061;SDS011;17724;53.546;9.974;2023-05-10T08:03:08;10.87;;;3.87;;
31061;SDS011;17724;53.546;9.974;2023-05-10T08:07:08;9.13;;;4.00;;
31061;SDS011;17724;53.546;9.974;2023-05-10T08:11:09;8.97;;;4.60;;
31061;SDS011;17724;53.546;9.974;2023-05-10T08:15:09;9.60;;;4.40;;
31061;SDS011;17724;53.546;9.974;2023-05-10T08:19:10;11.43;;;5.00;;
31061;SDS011;17724;53.546;9.974;2023-05-10T08:23:14;9.80;;;4.23;;
31061;SDS011;17724;53.546;9.974;2023-05-10T08:27:15;9.70;;;3.70;;
31061;SDS011;17724;53.546;9.974;2023-05-10T08:31:16;8.30;;;4.10;;
31061;SDS011;17724;53.546;9.974;2023-05-10T08:35:16;8.80;;;4.43;;
31061;SDS011;17724;53.546;9.974;2023-05-10T08:39:17;9.20;;;4.57;;
31061;SDS011;17724;53.546;9.974;2023-05-10T08:43:18;11.50;;;5.40;;
31061;SDS011;17724;53.546;9.974;2023-05-10T08:47:18;9.43;;;4.60;;
31061;SDS011;17724;53.546;9.974;2023-05-10T08:51:20;11.43;;;4.40;;
31061;SDS011;17724;53.546;9.974;2023-05-10T08:55:23;12.27;;;4.80;;
31061;SDS011;17724;53.546;9.974;2023-05-10T08:59:24;9.77;;;5.03;;
31061;SDS011;17724;53.546;9.974;2023-05-10T09:03:25;10.17;;;4.97;;
31061;SDS011;17724;53.546;9.974;2023-05-10T09:07:26;14.87;;;5.30;;
31061;SDS011;17724;53.546;9.974;2023-05-10T09:11:27;11.43;;;5.83;;
31061;SDS011;17724;53.546;9.974;2023-05-10T09:15:29;12.23;;;5.20;;
31061;SDS011;17724;53.546;9.974;2023-05-10T09:19:32;12.60;;;5.10;;
31061;SDS011;17724;53.546;9.974;2023-05-10T09:23:33;11.13;;;5.83;;
31061;SDS011;17724;53.546;9.974;2023-05-10T09:27:34;9.13;;;4.73;;
31061;SDS011;17724;53.546;9.974;2023-05-10T09:31:45;10.80;;;5.60;;
31061;SDS011;17724;53.546;9.974;2023-05-10T09:35:54;10.13;;;4.40;;
31061;SDS011;17724;53.546;9.974;2023-05-10T09:39:55;12.10;;;5.90;;
31061;SDS011;17724;53.546;9.974;2023-05-10T09:43:56;14.63;;;5.50;;
31061;SDS011;17724;53.546;9.974;2023-05-10T09:47:57;10.03;;;5.90;;
31061;SDS011;17724;53.546;9.974;2023-05-10T09:52:03;9.63;;;5.00;;
31061;SDS011;17724;53.546;9.974;2023-05-10T09:56:05;13.63;;;5.57;;
31061;SDS011;17724;53.546;9.974;2023-05-10T10:00:06;10.70;;;6.40;;
31061;SDS011;17724;53.546;9.974;2023-05-10T10:04:13;10.77;;;6.63;;
31061;SDS011;17724;53.546;9.974;2023-05-10T10:08:15;10.30;;;6.30;;
31061;SDS011;17724;53.546;9.974;2023-05-10T10:12:16;11.43;;;6.30;;
31061;SDS011;17724;53.546;9.974;2023-05-10T10:16:20;10.30;;;6.03;;
31061;SDS011;17724;53.546;9.974;2023-05-10T10:20:22;12.40;;;6.10;;
31061;SDS011;17724;53.546;9.974;2023-05-10T10:24:23;11.30;;;6.60;;
31061;SDS011;17724;53.546;9.974;2023-05-10T10:28:39;13.73;;;8.53;;
31061;SDS011;17724;53.546;9.974;2023-05-10T10:33:01;13.57;;;7.07;;
31061;SDS011;17724;53.546;9.974;2023-05-10T10:37:43;11.60;;;7.30;;
31061;SDS011;17724;53.546;9.974;2023-05-10T10:41:55;12.73;;;7.73;;
31061;SDS011;17724;53.546;9.974;2023-05-10T10:46:09;11.17;;;7.30;;
31061;SDS011;17724;53.546;9.974;2023-05-10T10:50:17;12.43;;;9.00;;
31061;SDS011;17724;53.546;9.974;2023-05-10T10:54:21;11.70;;;8.43;;
31061;SDS011;17724;53.546;9.974;2023-05-10T10:58:28;13.67;;;9.73;;
31061;SDS011;17724;53.546;9.974;2023-05-10T11:02:33;13.50;;;8.50;;
31061;SDS011;17724;53.546;9.974;2023-05-10T11:06:48;12.93;;;7.80;;
31061;SDS011;17724;53.546;9.974;2023-05-10T11:10:50;12.00;;;7.30;;
31061;SDS011;17724;53.546;9.974;2023-05-10T11:14:56;21.90;;;18.80;;
31061;SDS011;17724;53.546;9.974;2023-05-10T11:19:06;15.60;;;11.00;;
31061;SDS011;17724;53.546;9.974;2023-05-10T11:23:12;11.27;;;7.43;;
31061;SDS011;17724;53.546;9.974;2023-05-10T11:27:15;16.00;;;10.10;;
31061;SDS011;17724;53.546;9.974;2023-05-10T11:31:16;19.87;;;15.97;;
31061;SDS011;17724;53.546;9.974;2023-05-10T11:35:18;12.20;;;9.37;;
31061;SDS011;17724;53.546;9.974;2023-05-10T11:39:18;13.80;;;11.63;;
31061;SDS011;17724;53.546;9.974;2023-05-10T11:43:23;14.00;;;10.57;;
31061;SDS011;17724;53.546;9.974;2023-05-10T11:47:23;13.93;;;10.10;;
31061;SDS011;17724;53.546;9.974;2023-05-10T11:51:24;11.73;;;9.27;;
31061;SDS011;17724;53.546;9.974;2023-05-10T11:55:25;14.43;;;10.83;;
31061;SDS011;17724;53.546;9.974;2023-05-10T11:59:26;12.40;;;10.13;;
31061;SDS011;17724;53.546;9.974;2023-05-10T12:03:27;13.97;;;10.83;;
31061;SDS011;17724;53.546;9.974;2023-05-10T12:07:31;14.57;;;10.10;;
31061;SDS011;17724;53.546;9.974;2023-05-10T12:11:31;37.30;;;30.57;;
31061;SDS011;17724;53.546;9.974;2023-05-10T12:15:32;39.50;;;32.40;;
31061;SDS011;17724;53.546;9.974;2023-05-10T12:19:38;21.27;;;17.30;;
31061;SDS011;17724;53.546;9.974;2023-05-10T12:23:39;19.50;;;15.57;;
31061;SDS011;17724;53.546;9.974;2023-05-10T12:27:41;24.37;;;15.50;;
31061;SDS011;17724;53.546;9.974;2023-05-10T12:31:57;17.77;;;12.80;;
31061;SDS011;17724;53.546;9.974;2023-05-10T12:35:59;16.00;;;10.87;;
31061;SDS011;17724;53.546;9.974;2023-05-10T12:40:00;16.73;;;11.27;;
31061;SDS011;17724;53.546;9.974;2023-05-10T12:44:00;19.97;;;12.67;;
31061;SDS011;17724;53.546;9.974;2023-05-10T12:48:00;16.13;;;11.50;;
31061;SDS011;17724;53.546;9.974;2023-05-10T12:52:01;19.00;;;13.07;;
31061;SDS011;17724;53.546;9.974;2023-05-10T12:56:02;13.97;;;8.80;;
31061;SDS011;17724;53.546;9.974;2023-05-10T13:00:02;13.53;;;8.53;;
31061;SDS011;17724;53.546;9.974;2023-05-10T13:04:04;25.00;;;18.43;;
31061;SDS011;17724;53.546;9.974;2023-05-10T13:08:05;11.53;;;7.20;;
31061;SDS011;17724;53.546;9.974;2023-05-10T13:12:05;9.47;;;6.23;;
31061;SDS011;17724;53.546;9.974;2023-05-10T13:16:06;9.60;;;6.40;;
31061;SDS011;17724;53.546;9.974;2023-05-10T13:20:07;23.47;;;13.87;;
31061;SDS011;17724;53.546;9.974;2023-05-10T13:24:07;11.30;;;6.50;;
31061;SDS011;17724;53.546;9.974;2023-05-10T13:28:08;10.10;;;7.07;;
31061;SDS011;17724;53.546;9.974;2023-05-10T13:32:09;10.90;;;7.60;;
31061;SDS011;17724;53.546;9.974;2023-05-10T13:36:09;11.97;;;8.87;;
31061;SDS011;17724;53.546;9.974;2023-05-10T13:40:10;10.47;;;7.40;;
31061;SDS011;17724;53.546;9.974;2023-05-10T13:44:11;10.50;;;7.03;;
31061;SDS011;17724;53.546;9.974;2023-05-10T13:48:13;8.97;;;6.30;;
31061;SDS011;17724;53.546;9.974;2023-05-10T13:52:14;14.10;;;8.07;;
31061;SDS011;17724;53.546;9.974;2023-05-10T13:56:14;10.90;;;7.10;;
31061;SDS011;17724;53.546;9.974;2023-05-10T14:00:15;11.40;;;7.40;;
31061;SDS011;17724;53.546;9.974;2023-05-10T14:04:16;11.57;;;7.40;;
31061;SDS011;17724;53.546;9.974;2023-05-10T14:08:17;11.97;;;7.77;;
31061;SDS011;17724;53.546;9.974;2023-05-10T14:12:17;17.17;;;10.90;;
31061;SDS011;17724;53.546;9.974;2023-05-10T14:16:18;9.80;;;6.70;;
31061;SDS011;17724;53.546;9.974;2023-05-10T14:20:20;10.00;;;6.17;;
31061;SDS011;17724;53.546;9.974;2023-05-10T14:24:20;9.33;;;5.90;;
31061;SDS011;17724;53.546;9.974;2023-05-10T14:28:21;10.00;;;7.03;;
31061;SDS011;17724;53.546;9.974;2023-05-10T14:32:22;9.23;;;6.43;;
31061;SDS011;17724;53.546;9.974;2023-05-10T14:36:23;11.77;;;7.67;;
31061;SDS011;17724;53.546;9.974;2023-05-10T14:40:23;9.97;;;6.90;;
31061;SDS011;17724;53.546;9.974;2023-05-10T14:44:24;9.73;;;6.60;;
31061;SDS011;17724;53.546;9.974;2023-05-10T14:48:25;14.33;;;8.00;;
31061;SDS011;17724;53.546;9.974;2023-05-10T14:52:25;12.30;;;6.63;;
31061;SDS011;17724;53.546;9.974;2023-05-10T14:56:26;11.17;;;7.17;;
31061;SDS011;17724;53.546;9.974;2023-05-10T15:00:30;9.40;;;7.13;;
31061;SDS011;17724;53.546;9.974;2023-05-10T15:04:31;10.07;;;6.43;;
31061;SDS011;17724;53.546;9.974;2023-05-10T15:08:32;10.03;;;6.30;;
31061;SDS011;17724;53.546;9.974;2023-05-10T15:12:32;10.00;;;6.40;;
31061;SDS011;17724;53.546;9.974;2023-05-10T15:16:33;11.07;;;7.60;;
31061;SDS011;17724;53.546;9.974;2023-05-10T15:20:33;10.07;;;7.27;;
31061;SDS011;17724;53.546;9.974;2023-05-10T15:24:34;9.80;;;6.90;;
31061;SDS011;17724;53.546;9.974;2023-05-10T15:28:34;13.27;;;7.70;;
31061;SDS011;17724;53.546;9.974;2023-05-10T15:32:37;12.37;;;8.80;;
31061;SDS011;17724;53.546;9.974;2023-05-10T15:36:40;10.53;;;7.63;;
31061;SDS011;17724;53.546;9.974;2023-05-10T15:40:40;14.80;;;10.57;;
31061;SDS011;17724;53.546;9.974;2023-05-10T15:44:41;15.50;;;9.80;;
31061;SDS011;17724;53.546;9.974;2023-05-10T15:48:43;18.30;;;16.30;;
31061;SDS011;17724;53.546;9.974;2023-05-10T15:52:44;21.30;;;18.57;;
31061;SDS011;17724;53.546;9.974;2023-05-10T15:56:44;12.20;;;8.70;;
31061;SDS011;17724;53.546;9.974;2023-05-10T16:00:45;22.83;;;16.03;;
31061;SDS011;17724;53.546;9.974;2023-05-10T16:04:45;23.90;;;15.37;;
31061;SDS011;17724;53.546;9.974;2023-05-10T16:08:46;12.90;;;9.30;;
31061;SDS011;17724;53.546;9.974;2023-05-10T16:12:46;13.07;;;7.30;;
31061;SDS011;17724;53.546;9.974;2023-05-10T16:16:47;21.37;;;14.10;;
31061;SDS011;17724;53.546;9.974;2023-05-10T16:20:47;15.97;;;11.20;;
31061;SDS011;17724;53.546;9.974;2023-05-10T16:24:49;12.83;;;8.60;;
31061;SDS011;17724;53.546;9.974;2023-05-10T16:28:52;20.73;;;13.30;;
31061;SDS011;17724;53.546;9.974;2023-05-10T16:32:53;19.23;;;11.87;;
31061;SDS011;17724;53.546;9.974;2023-05-10T16:36:54;17.57;;;11.13;;
31061;SDS011;17724;53.546;9.974;2023-05-10T16:40:54;18.57;;;11.67;;
31061;SDS011;17724;53.546;9.974;2023-05-10T16:44:56;28.40;;;19.50;;
31061;SDS011;17724;53.546;9.974;2023-05-10T16:48:57;13.10;;;7.00;;
31061;SDS011;17724;53.546;9.974;2023-05-10T16:52:58;19.83;;;11.60;;
31061;SDS011;17724;53.546;9.974;2023-05-10T16:57:00;19.60;;;10.63;;
31061;SDS011;17724;53.546;9.974;2023-05-10T17:01:01;12.00;;;7.60;;
31061;SDS011;17724;53.546;9.974;2023-05-10T17:05:04;37.10;;;31.20;;
31061;SDS011;17724;53.546;9.974;2023-05-10T17:09:04;20.60;;;17.53;;
31061;SDS011;17724;53.546;9.974;2023-05-10T17:13:06;38.67;;;28.90;;
31061;SDS011;17724;53.546;9.974;2023-05-10T17:17:07;77.77;;;69.93;;
31061;SDS011;17724;53.546;9.974;2023-05-10T17:21:07;23.47;;;18.10;;
31061;SDS011;17724;53.546;9.974;2023-05-10T17:25:08;54.83;;;49.23;;
31061;SDS011;17724;53.546;9.974;2023-05-10T17:29:09;19.33;;;14.10;;
31061;SDS011;17724;53.546;9.974;2023-05-10T17:33:10;26.27;;;20.20;;
31061;SDS011;17724;53.546;9.974;2023-05-10T17:37:10;52.30;;;38.17;;
31061;SDS011;17724;53.546;9.974;2023-05-10T17:41:12;23.97;;;19.27;;
31061;SDS011;17724;53.546;9.974;2023-05-10T17:45:13;38.10;;;30.57;;
31061;SDS011;17724;53.546;9.974;2023-05-10T17:49:14;24.40;;;21.80;;
31061;SDS011;17724;53.546;9.974;2023-05-10T17:53:14;26.10;;;20.13;;
31061;SDS011;17724;53.546;9.974;2023-05-10T17:57:15;36.03;;;29.03;;
31061;SDS011;17724;53.546;9.974;2023-05-10T18:01:15;47.47;;;33.93;;
31061;SDS011;17724;53.546;9.974;2023-05-10T18:05:16;49.27;;;36.70;;
31061;SDS011;17724;53.546;9.974;2023-05-10T18:09:16;33.07;;;27.80;;
31061;SDS011;17724;53.546;9.974;2023-05-10T18:13:17;14.90;;;10.70;;
31061;SDS011;17724;53.546;9.974;2023-05-10T18:17:17;15.30;;;9.17;;
31061;SDS011;17724;53.546;9.974;2023-05-10T18:21:18;34.10;;;25.90;;
31061;SDS011;17724;53.546;9.974;2023-05-10T18:25:18;12.70;;;8.00;;
31061;SDS011;17724;53.546;9.974;2023-05-10T18:29:19;17.57;;;12.73;;
31061;SDS011;17724;53.546;9.974;2023-05-10T18:33:19;26.57;;;19.80;;
31061;SDS011;17724;53.546;9.974;2023-05-10T18:37:20;12.50;;;8.13;;
31061;SDS011;17724;53.546;9.974;2023-05-10T18:41:20;17.20;;;13.07;;
31061;SDS011;17724;53.546;9.974;2023-05-10T18:45:21;18.93;;;11.10;;
31061;SDS011;17724;53.546;9.974;2023-05-10T18:49:21;21.57;;;15.20;;
31061;SDS011;17724;53.546;9.974;2023-05-10T18:53:22;27.07;;;17.93;;
31061;SDS011;17724;53.546;9.974;2023-05-10T18:57:23;22.23;;;17.87;;
31061;SDS011;17724;53.546;9.974;2023-05-10T19:01:23;19.70;;;13.87;;
31061;SDS011;17724;53.546;9.974;2023-05-10T19:05:24;28.40;;;21.93;;
31061;SDS011;17724;53.546;9.974;2023-05-10T19:09:29;17.30;;;12.73;;
31061;SDS011;17724;53.546;9.974;2023-05-10T19:13:29;18.87;;;14.00;;
31061;SDS011;17724;53.546;9.974;2023-05-10T19:17:29;16.53;;;10.90;;
31061;SDS011;17724;53.546;9.974;2023-05-10T19:21:30;21.30;;;14.77;;
31061;SDS011;17724;53.546;9.974;2023-05-10T19:25:32;17.87;;;11.97;;
31061;SDS011;17724;53.546;9.974;2023-05-10T19:29:33;16.60;;;11.23;;
31061;SDS011;17724;53.546;9.974;2023-05-10T19:33:34;64.03;;;45.03;;
31061;SDS011;17724;53.546;9.974;2023-05-10T19:37:35;44.60;;;39.60;;
31061;SDS011;17724;53.546;9.974;2023-05-10T19:41:35;24.40;;;19.83;;
31061;SDS011;17724;53.546;9.974;2023-05-10T19:45:36;35.60;;;24.03;;
31061;SDS011;17724;53.546;9.974;2023-05-10T19:49:36;26.57;;;18.60;;
31061;SDS011;17724;53.546;9.974;2023-05-10T19:53:37;20.67;;;13.77;;
31061;SDS011;17724;53.546;9.974;2023-05-10T19:57:40;9.50;;;5.57;;
31061;SDS011;17724;53.546;9.974;2023-05-10T20:01:40;16.17;;;9.60;;
31061;SDS011;17724;53.546;9.974;2023-05-10T20:05:41;25.37;;;15.80;;
31061;SDS011;17724;53.546;9.974;2023-05-10T20:09:42;20.20;;;13.90;;
31061;SDS011;17724;53.546;9.974;2023-05-10T20:13:45;14.50;;;9.90;;
31061;SDS011;17724;53.546;9.974;2023-05-10T20:17:46;26.80;;;17.20;;
31061;SDS011;17724;53.546;9.974;2023-05-10T20:21:47;22.60;;;15.10;;
31061;SDS011;17724;53.546;9.974;2023-05-10T20:25:47;19.93;;;13.10;;
31061;SDS011;17724;53.546;9.974;2023-05-10T20:29:48;18.70;;;12.23;;
31061;SDS011;17724;53.546;9.974;2023-05-10T20:33:49;9.17;;;5.87;;
31061;SDS011;17724;53.546;9.974;2023-05-10T20:37:49;8.93;;;4.97;;
31061;SDS011;17724;53.546;9.974;2023-05-10T20:41:50;8.10;;;4.53;;
31061;SDS011;17724;53.546;9.974;2023-05-10T20:45:50;8.10;;;4.90;;
31061;SDS011;17724;53.546;9.974;2023-05-10T20:49:51;8.90;;;5.80;;
31061;SDS011;17724;53.546;9.974;2023-05-10T20:53:51;11.20;;;8.30;;
31061;SDS011;17724;53.546;9.974;2023-05-10T20:57:52;9.10;;;5.87;;
31061;SDS011;17724;53.546;9.974;2023-05-10T21:01:53;10.60;;;7.37;;
31061;SDS011;17724;53.546;9.974;2023-05-10T21:05:53;9.73;;;5.83;;
31061;SDS011;17724;53.546;9.974;2023-05-10T21:09:54;9.50;;;6.50;;
31061;SDS011;17724;53.546;9.974;2023-05-10T21:13:55;9.60;;;6.10;;
31061;SDS011;17724;53.546;9.974;2023-05-10T21:17:56;11.50;;;7.10;;
31061;SDS011;17724;53.546;9.974;2023-05-10T21:21:57;11.77;;;7.60;;
31061;SDS011;17724;53.546;9.974;2023-05-10T21:25:58;10.90;;;7.10;;
31061;SDS011;17724;53.546;9.974;2023-05-10T21:30:01;11.37;;;7.97;;
31061;SDS011;17724;53.546;9.974;2023-05-10T21:34:02;11.20;;;8.10;;
31061;SDS011;17724;53.546;9.974;2023-05-10T21:38:02;11.77;;;8.10;;
31061;SDS011;17724;53.546;9.974;2023-05-10T21:42:03;11.50;;;7.90;;
31061;SDS011;17724;53.546;9.974;2023-05-10T21:46:04;11.87;;;8.20;;
31061;SDS011;17724;53.546;9.974;2023-05-10T21:50:08;11.80;;;8.30;;
31061;SDS011;17724;53.546;9.974;2023-05-10T21:54:09;11.80;;;8.10;;
31061;SDS011;17724;53.546;9.974;2023-05-10T21:58:10;12.33;;;8.70;;
31061;SDS011;17724;53.546;9.974;2023-05-10T22:02:10;12.50;;;9.73;;
31061;SDS011;17724;53.546;9.974;2023-05-10T22:06:11;13.67;;;9.50;;
31061;SDS011;17724;53.546;9.974;2023-05-10T22:10:11;12.23;;;8.40;;
31061;SDS011;17724;53.546;9.974;2023-05-10T22:14:12;13.17;;;9.70;;
31061;SDS011;17724;53.546;9.974;2023-05-10T22:18:12;14.33;;;10.43;;
31061;SDS011;17724;53.546;9.974;2023-05-10T22:22:13;14.17;;;9.77;;
31061;SDS011;17724;53.546;9.974;2023-05-10T22:26:13;13.73;;;10.03;;
31061;SDS011;17724;53.546;9.974;2023-05-10T22:30:14;14.97;;;10.80;;
31061;SDS011;17724;53.546;9.974;2023-05-10T22:34:14;14.87;;;10.97;;
31061;SDS011;17724;53.546;9.974;2023-05-10T22:38:15;13.33;;;9.93;;
31061;SDS011;17724;53.546;9.974;2023-05-10T22:42:15;15.87;;;9.47;;
31061;SDS011;17724;53.546;9.974;2023-05-10T22:46:16;14.07;;;10.77;;
31061;SDS011;17724;53.546;9.974;2023-05-10T22:50:16;15.53;;;11.27;;
31061;SDS011;17724;53.546;9.974;2023-05-10T22:54:17;14.87;;;11.27;;
31061;SDS011;17724;53.546;9.974;2023-05-10T22:58:17;13.30;;;9.40;;
31061;SDS011;17724;53.546;9.974;2023-05-10T23:02:18;16.10;;;11.20;;
31061;SDS011;17724;53.546;9.974;2023-05-10T23:06:18;15.63;;;11.60;;
31061;SDS011;17724;53.546;9.974;2023-05-10T23:10:19;15.67;;;12.07;;
31061;SDS011;17724;53.546;9.974;2023-05-10T23:14:19;13.50;;;10.00;;
31061;SDS011;17724;53.546;9.974;2023-05-10T23:18:20;15.83;;;11.50;;
31061;SDS011;17724;53.546;9.974;2023-05-10T23:22:21;15.73;;;10.83;;
31061;SDS011;17724;53.546;9.974;2023-05-10T23:26:21;17.00;;;12.37;;
31061;SDS011;17724;53.546;9.974;2023-05-10T23:30:22;14.27;;;10.23;;
31061;SDS011;17724;53.546;9.974;2023-05-10T23:34:23;16.93;;;12.43;;
31061;SDS011;17724;53.546;9.974;2023-05-10T23:38:23;21.50;;;17.20;;
31061;SDS011;17724;53.546;9.974;2023-05-10T23:42:24;25.80;;;21.30;;
31061;SDS011;17724;53.546;9.974;2023-05-10T23:46:24;23.77;;;19.80;;
31061;SDS011;17724;53.546;9.974;2023-05-10T23:50:25;24.40;;;20.40;;
31061;SDS011;17724;53.546;9.974;2023-05-10T23:54:26;23.67;;;18.93;;
31061;SDS011;17724;53.546;9.974;2023-05-10T23:58:27;21.37;;;16.60;;
